createdAt,value
2023-01-29T00:00:05.729Z,1028.32
2023-01-29T00:01:05.715Z,1028.33
2023-01-29T00:02:05.927Z,1028.34
2023-01-29T00:03:05.703Z,1028.27
2023-01-29T00:04:05.697Z,1028.28
2023-01-29T00:05:25.407Z,1028.28
2023-01-29T00:06:06.695Z,1028.30
2023-01-29T00:07:05.623Z,1028.28
2023-01-29T00:08:05.672Z,1028.31
2023-01-29T00:09:05.595Z,1028.31
2023-01-29T00:10:05.636Z,1028.35
2023-01-29T00:11:05.573Z,1028.27
2023-01-29T00:12:05.576Z,1028.25
2023-01-29T00:13:05.596Z,1028.26
2023-01-29T00:14:05.577Z,1028.29
2023-01-29T00:15:05.552Z,1028.24
2023-01-29T00:16:05.537Z,1028.24
2023-01-29T00:17:05.620Z,1028.22
2023-01-29T00:18:05.539Z,1028.23
2023-01-29T00:19:05.510Z,1028.21
2023-01-29T00:20:05.472Z,1028.17
2023-01-29T00:21:05.450Z,1028.16
2023-01-29T00:22:05.489Z,1028.14
2023-01-29T00:23:05.432Z,1028.19
2023-01-29T00:24:05.460Z,1028.17
2023-01-29T00:25:05.410Z,1028.22
2023-01-29T00:26:05.453Z,1028.15
2023-01-29T00:27:05.372Z,1028.33
2023-01-29T00:28:05.407Z,1028.24
2023-01-29T00:29:05.375Z,1028.22
2023-01-29T00:30:05.353Z,1028.18
2023-01-29T00:31:05.413Z,1028.18
2023-01-29T00:32:05.392Z,1028.15
2023-01-29T00:33:05.298Z,1028.15
2023-01-29T00:34:05.325Z,1028.08
2023-01-29T00:35:05.305Z,1028.02
2023-01-29T00:36:05.284Z,1028.03
2023-01-29T00:37:05.261Z,1028.01
2023-01-29T00:38:05.313Z,1027.94
2023-01-29T00:39:05.218Z,1027.97
2023-01-29T00:40:05.236Z,1027.97
2023-01-29T00:41:05.204Z,1027.96
2023-01-29T00:42:05.237Z,1028.03
2023-01-29T00:43:05.188Z,1028.03
2023-01-29T00:44:05.167Z,1027.96
2023-01-29T00:45:05.152Z,1027.97
2023-01-29T00:46:05.146Z,1027.99
2023-01-29T00:47:05.141Z,1027.92
2023-01-29T00:48:05.188Z,1027.91
2023-01-29T00:49:05.098Z,1027.95
2023-01-29T00:50:05.107Z,1027.88
2023-01-29T00:51:05.110Z,1027.85
2023-01-29T00:52:05.101Z,1027.86
2023-01-29T00:53:05.042Z,1027.89
2023-01-29T00:54:05.099Z,1027.88
2023-01-29T00:55:05.050Z,1027.91
2023-01-29T00:56:05.056Z,1027.88
2023-01-29T00:57:04.995Z,1027.95
2023-01-29T00:58:05.050Z,1027.94
2023-01-29T00:59:05.004Z,1027.88
2023-01-29T01:00:04.978Z,1027.94
2023-01-29T01:01:05.052Z,1027.94
2023-01-29T01:02:05.001Z,1027.92
2023-01-29T01:03:04.932Z,1027.90
2023-01-29T01:04:04.953Z,1027.88
2023-01-29T01:05:04.891Z,1027.87
2023-01-29T01:06:04.897Z,1027.92
2023-01-29T01:07:04.899Z,1027.94
2023-01-29T01:08:04.903Z,1027.95
2023-01-29T01:09:04.846Z,1027.91
2023-01-29T01:10:04.903Z,1027.95
2023-01-29T01:11:04.851Z,1027.88
2023-01-29T01:12:04.861Z,1027.95
2023-01-29T01:13:04.812Z,1027.93
2023-01-29T01:14:04.797Z,1027.90
2023-01-29T01:15:04.811Z,1027.99
2023-01-29T01:16:04.783Z,1027.92
2023-01-29T01:17:04.736Z,1027.92
2023-01-29T01:18:04.763Z,1027.89
2023-01-29T01:19:04.715Z,1027.93
2023-01-29T01:20:04.756Z,1027.85
2023-01-29T01:21:04.698Z,1027.80
2023-01-29T01:22:04.703Z,1027.88
2023-01-29T01:23:04.673Z,1027.86
2023-01-29T01:24:04.684Z,1027.92
2023-01-29T01:25:04.671Z,1027.91
2023-01-29T01:26:04.725Z,1027.96
2023-01-29T01:27:04.647Z,1027.96
2023-01-29T01:28:04.658Z,1027.87
2023-01-29T01:29:04.592Z,1027.97
2023-01-29T01:30:04.637Z,1027.91
2023-01-29T01:31:04.691Z,1027.95
2023-01-29T01:32:04.687Z,1027.98
2023-01-29T01:33:04.578Z,1027.90
2023-01-29T01:34:04.534Z,1027.95
2023-01-29T01:35:04.538Z,1027.98
2023-01-29T01:36:04.560Z,1027.97
2023-01-29T01:37:04.528Z,1028.00
2023-01-29T01:38:04.531Z,1027.99
2023-01-29T01:39:04.498Z,1028.01
2023-01-29T01:40:04.487Z,1028.01
2023-01-29T01:41:04.468Z,1028.03
2023-01-29T01:42:04.481Z,1027.96
2023-01-29T01:43:04.447Z,1028.00
2023-01-29T01:44:04.441Z,1028.01
2023-01-29T01:45:04.401Z,1027.92
2023-01-29T01:46:04.410Z,1027.97
2023-01-29T01:47:04.381Z,1027.94
2023-01-29T01:48:04.378Z,1027.88
2023-01-29T01:49:04.363Z,1027.90
2023-01-29T01:50:04.366Z,1027.86
2023-01-29T01:51:04.348Z,1027.87
2023-01-29T01:52:04.355Z,1027.82
2023-01-29T01:53:04.312Z,1027.82
2023-01-29T01:54:04.288Z,1027.77
2023-01-29T01:55:04.283Z,1027.76
2023-01-29T01:56:04.264Z,1027.79
2023-01-29T01:57:04.290Z,1027.77
2023-01-29T01:58:04.280Z,1027.76
2023-01-29T01:59:04.240Z,1027.68
2023-01-29T02:00:04.239Z,1027.64
2023-01-29T02:01:04.280Z,1027.61
2023-01-29T02:02:04.234Z,1027.54
2023-01-29T02:03:04.176Z,1027.55
2023-01-29T02:04:04.188Z,1027.56
2023-01-29T02:05:04.159Z,1027.60
2023-01-29T02:06:04.132Z,1027.60
2023-01-29T02:07:04.115Z,1027.64
2023-01-29T02:08:04.141Z,1027.66
2023-01-29T02:09:04.106Z,1027.63
2023-01-29T02:10:04.083Z,1027.67
2023-01-29T02:11:04.077Z,1027.70
2023-01-29T02:12:04.079Z,1027.61
2023-01-29T02:13:04.037Z,1027.69
2023-01-29T02:14:04.053Z,1027.66
2023-01-29T02:15:04.017Z,1027.72
2023-01-29T02:16:04.040Z,1027.75
2023-01-29T02:17:04.006Z,1027.75
2023-01-29T02:18:04.071Z,1027.77
2023-01-29T02:19:04.002Z,1027.70
2023-01-29T02:20:03.968Z,1027.72
2023-01-29T02:21:03.955Z,1027.77
2023-01-29T02:22:03.955Z,1027.80
2023-01-29T02:23:03.928Z,1027.78
2023-01-29T02:24:04.046Z,1027.75
2023-01-29T02:25:03.887Z,1027.80
2023-01-29T02:26:03.878Z,1027.84
2023-01-29T02:27:03.866Z,1027.74
2023-01-29T02:28:03.922Z,1027.76
2023-01-29T02:29:03.856Z,1027.81
2023-01-29T02:30:03.854Z,1027.87
2023-01-29T02:31:03.877Z,1027.83
2023-01-29T02:32:03.879Z,1027.90
2023-01-29T02:33:03.806Z,1027.89
2023-01-29T02:34:03.815Z,1027.85
2023-01-29T02:35:03.804Z,1027.81
2023-01-29T02:36:03.745Z,1027.77
2023-01-29T02:37:03.754Z,1027.84
2023-01-29T02:38:03.726Z,1027.83
2023-01-29T02:39:03.743Z,1027.83
2023-01-29T02:40:03.728Z,1027.84
2023-01-29T02:41:03.720Z,1027.77
2023-01-29T02:42:03.693Z,1027.82
2023-01-29T02:43:03.663Z,1027.89
2023-01-29T02:44:03.644Z,1027.86
2023-01-29T02:45:03.660Z,1027.90
2023-01-29T02:46:03.690Z,1027.87
2023-01-29T02:47:03.620Z,1027.90
2023-01-29T02:48:03.627Z,1027.89
2023-01-29T02:49:03.617Z,1027.96
2023-01-29T02:50:03.580Z,1027.98
2023-01-29T02:51:03.569Z,1027.95
2023-01-29T02:52:03.567Z,1028.05
2023-01-29T02:53:03.584Z,1028.07
2023-01-29T02:54:03.547Z,1028.08
2023-01-29T02:55:03.570Z,1028.14
2023-01-29T02:56:03.498Z,1028.14
2023-01-29T02:57:03.488Z,1028.12
2023-01-29T02:58:03.500Z,1028.17
2023-01-29T02:59:03.496Z,1028.17
2023-01-29T03:00:03.509Z,1028.10
2023-01-29T03:01:03.452Z,1028.14
2023-01-29T03:02:03.468Z,1028.18
2023-01-29T03:03:03.426Z,1028.22
2023-01-29T03:04:03.404Z,1028.25
2023-01-29T03:05:03.423Z,1028.25
2023-01-29T03:06:03.404Z,1028.26
2023-01-29T03:07:03.411Z,1028.31
2023-01-29T03:08:03.344Z,1028.30
2023-01-29T03:09:03.359Z,1028.25
2023-01-29T03:10:03.340Z,1028.30
2023-01-29T03:11:03.359Z,1028.32
2023-01-29T03:12:03.309Z,1028.24
2023-01-29T03:13:03.318Z,1028.21
2023-01-29T03:14:03.262Z,1028.24
2023-01-29T03:15:03.264Z,1028.10
2023-01-29T03:16:03.252Z,1028.12
2023-01-29T03:17:03.236Z,1028.02
2023-01-29T03:18:03.241Z,1028.01
2023-01-29T03:19:03.248Z,1027.96
2023-01-29T03:20:03.220Z,1028.00
2023-01-29T03:21:03.226Z,1027.94
2023-01-29T03:22:03.166Z,1027.95
2023-01-29T03:23:03.186Z,1027.97
2023-01-29T03:24:03.176Z,1027.98
2023-01-29T03:25:03.181Z,1028.02
2023-01-29T03:26:03.135Z,1027.97
2023-01-29T03:27:03.178Z,1027.96
2023-01-29T03:28:03.091Z,1027.93
2023-01-29T03:29:03.097Z,1027.92
2023-01-29T03:30:03.061Z,1027.87
2023-01-29T03:31:03.126Z,1027.84
2023-01-29T03:32:03.047Z,1027.91
2023-01-29T03:33:03.068Z,1027.83
2023-01-29T03:34:03.017Z,1027.84
2023-01-29T03:35:03.055Z,1027.83
2023-01-29T03:36:03.009Z,1027.83
2023-01-29T03:37:03.023Z,1027.88
2023-01-29T03:38:02.968Z,1027.87
2023-01-29T03:39:02.968Z,1027.86
2023-01-29T03:40:02.963Z,1027.85
2023-01-29T03:41:02.969Z,1027.95
2023-01-29T03:42:02.930Z,1027.92
2023-01-29T03:43:02.908Z,1028.01
2023-01-29T03:44:02.913Z,1027.97
2023-01-29T03:45:02.929Z,1027.97
2023-01-29T03:46:02.879Z,1027.93
2023-01-29T03:47:02.864Z,1027.93
2023-01-29T03:48:02.841Z,1027.96
2023-01-29T03:49:02.844Z,1028.00
2023-01-29T03:50:02.811Z,1027.97
2023-01-29T03:51:02.811Z,1028.00
2023-01-29T03:52:02.792Z,1028.00
2023-01-29T03:53:02.793Z,1028.04
2023-01-29T03:54:02.783Z,1028.06
2023-01-29T03:55:02.791Z,1028.06
2023-01-29T03:56:02.759Z,1028.13
2023-01-29T03:57:02.749Z,1028.19
2023-01-29T03:58:02.739Z,1028.12
2023-01-29T03:59:02.739Z,1028.05
2023-01-29T04:00:02.715Z,1028.06
2023-01-29T04:01:02.682Z,1028.07
2023-01-29T04:02:02.671Z,1028.11
2023-01-29T04:03:02.687Z,1028.01
2023-01-29T04:04:02.682Z,1027.98
2023-01-29T04:05:02.665Z,1028.00
2023-01-29T04:06:02.624Z,1027.96
2023-01-29T04:07:02.620Z,1027.92
2023-01-29T04:08:02.614Z,1027.97
2023-01-29T04:09:02.613Z,1027.98
2023-01-29T04:10:02.585Z,1027.88
2023-01-29T04:11:02.583Z,1027.89
2023-01-29T04:12:02.567Z,1027.85
2023-01-29T04:13:02.526Z,1027.86
2023-01-29T04:14:02.540Z,1027.88
2023-01-29T04:15:02.520Z,1027.88
2023-01-29T04:16:02.760Z,1027.88
2023-01-29T04:17:02.510Z,1027.89
2023-01-29T04:18:02.503Z,1027.85
2023-01-29T04:19:02.468Z,1027.85
2023-01-29T04:20:02.436Z,1027.87
2023-01-29T04:21:02.451Z,1027.84
2023-01-29T04:22:02.409Z,1027.80
2023-01-29T04:23:02.413Z,1027.68
2023-01-29T04:24:02.438Z,1027.67
2023-01-29T04:25:02.436Z,1027.73
2023-01-29T04:26:02.355Z,1027.71
2023-01-29T04:27:02.368Z,1027.67
2023-01-29T04:28:02.341Z,1027.70
2023-01-29T04:29:02.356Z,1027.66
2023-01-29T04:30:02.316Z,1027.69
2023-01-29T04:31:02.395Z,1027.65
2023-01-29T04:32:02.314Z,1027.58
2023-01-29T04:33:02.289Z,1027.51
2023-01-29T04:34:02.285Z,1027.57
2023-01-29T04:35:02.279Z,1027.54
2023-01-29T04:36:02.257Z,1027.50
2023-01-29T04:37:02.256Z,1027.52
2023-01-29T04:38:02.245Z,1027.48
2023-01-29T04:39:02.205Z,1027.53
2023-01-29T04:40:02.189Z,1027.49
2023-01-29T04:41:02.216Z,1027.50
2023-01-29T04:42:02.181Z,1027.53
2023-01-29T04:43:02.197Z,1027.49
2023-01-29T04:44:02.126Z,1027.51
2023-01-29T04:45:02.153Z,1027.53
2023-01-29T04:46:02.115Z,1027.53
2023-01-29T04:47:02.186Z,1027.56
2023-01-29T04:48:02.111Z,1027.46
2023-01-29T04:49:02.121Z,1027.51
2023-01-29T04:50:02.113Z,1027.46
2023-01-29T04:51:02.065Z,1027.52
2023-01-29T04:52:02.058Z,1027.55
2023-01-29T04:53:02.057Z,1027.54
2023-01-29T04:54:02.052Z,1027.50
2023-01-29T04:55:02.027Z,1027.53
2023-01-29T04:56:02.024Z,1027.46
2023-01-29T04:57:01.982Z,1027.53
2023-01-29T04:58:01.999Z,1027.48
2023-01-29T04:59:01.990Z,1027.47
2023-01-29T05:00:01.930Z,1027.48
2023-01-29T05:01:01.923Z,1027.46
2023-01-29T05:02:01.983Z,1027.43
2023-01-29T05:03:02.026Z,1027.36
2023-01-29T05:04:01.928Z,1027.33
2023-01-29T05:05:01.905Z,1027.32
2023-01-29T05:06:01.880Z,1027.28
2023-01-29T05:07:01.877Z,1027.22
2023-01-29T05:08:01.857Z,1027.27
2023-01-29T05:09:01.848Z,1027.26
2023-01-29T05:10:01.835Z,1027.30
2023-01-29T05:11:01.835Z,1027.29
2023-01-29T05:12:01.810Z,1027.22
2023-01-29T05:13:01.801Z,1027.26
2023-01-29T05:14:01.751Z,1027.29
2023-01-29T05:15:01.785Z,1027.28
2023-01-29T05:16:01.783Z,1027.33
2023-01-29T05:17:01.734Z,1027.32
2023-01-29T05:18:01.805Z,1027.33
2023-01-29T05:19:01.708Z,1027.42
2023-01-29T05:20:01.701Z,1027.39
2023-01-29T05:21:01.682Z,1027.33
2023-01-29T05:22:01.651Z,1027.33
2023-01-29T05:23:01.649Z,1027.32
2023-01-29T05:24:01.659Z,1027.35
2023-01-29T05:25:01.660Z,1027.28
2023-01-29T05:26:01.643Z,1027.30
2023-01-29T05:27:01.642Z,1027.26
2023-01-29T05:28:01.596Z,1027.28
2023-01-29T05:29:01.599Z,1027.28
2023-01-29T05:30:01.556Z,1027.30
2023-01-29T05:31:01.677Z,1027.24
2023-01-29T05:32:01.564Z,1027.20
2023-01-29T05:33:01.573Z,1027.19
2023-01-29T05:34:01.558Z,1027.18
2023-01-29T05:35:01.554Z,1027.22
2023-01-29T05:36:01.489Z,1027.23
2023-01-29T05:37:01.499Z,1027.24
2023-01-29T05:38:01.479Z,1027.21
2023-01-29T05:39:01.453Z,1027.22
2023-01-29T05:40:01.439Z,1027.23
2023-01-29T05:41:01.454Z,1027.19
2023-01-29T05:42:01.431Z,1027.20
2023-01-29T05:43:01.443Z,1027.24
2023-01-29T05:44:01.393Z,1027.21
2023-01-29T05:45:01.438Z,1027.20
2023-01-29T05:46:01.376Z,1027.28
2023-01-29T05:47:01.385Z,1027.26
2023-01-29T05:48:01.328Z,1027.25
2023-01-29T05:49:01.356Z,1027.24
2023-01-29T05:50:01.328Z,1027.28
2023-01-29T05:51:01.317Z,1027.22
2023-01-29T05:52:01.319Z,1027.27
2023-01-29T05:53:01.310Z,1027.29
2023-01-29T05:54:01.249Z,1027.28
2023-01-29T05:55:01.275Z,1027.32
2023-01-29T05:56:01.263Z,1027.28
2023-01-29T05:57:01.244Z,1027.25
2023-01-29T05:58:01.223Z,1027.26
2023-01-29T05:59:01.233Z,1027.21
2023-01-29T06:00:01.166Z,1027.28
2023-01-29T06:01:01.165Z,1027.24
2023-01-29T06:02:01.224Z,1027.23
2023-01-29T06:03:01.195Z,1027.21
2023-01-29T06:04:01.115Z,1027.20
2023-01-29T06:05:01.125Z,1027.21
2023-01-29T06:06:01.109Z,1027.26
2023-01-29T06:07:01.118Z,1027.29
2023-01-29T06:08:01.121Z,1027.22
2023-01-29T06:09:01.092Z,1027.27
2023-01-29T06:10:01.064Z,1027.22
2023-01-29T06:11:01.048Z,1027.24
2023-01-29T06:12:01.025Z,1027.30
2023-01-29T06:13:01.059Z,1027.36
2023-01-29T06:14:01.011Z,1027.33
2023-01-29T06:15:01.027Z,1027.32
2023-01-29T06:16:01.048Z,1027.36
2023-01-29T06:17:00.998Z,1027.31
2023-01-29T06:18:00.969Z,1027.39
2023-01-29T06:19:00.970Z,1027.34
2023-01-29T06:20:00.933Z,1027.38
2023-01-29T06:21:00.925Z,1027.37
2023-01-29T06:22:00.909Z,1027.38
2023-01-29T06:23:00.916Z,1027.32
2023-01-29T06:24:00.945Z,1027.34
2023-01-29T06:25:00.872Z,1027.38
2023-01-29T06:26:00.863Z,1027.33
2023-01-29T06:27:00.874Z,1027.36
2023-01-29T06:28:00.861Z,1027.36
2023-01-29T06:29:00.820Z,1027.37
2023-01-29T06:30:00.829Z,1027.39
2023-01-29T06:31:11.514Z,1027.45
2023-01-29T06:32:01.894Z,1027.43
2023-01-29T06:33:00.794Z,1027.44
2023-01-29T06:34:00.749Z,1027.43
2023-01-29T06:35:00.774Z,1027.54
2023-01-29T06:36:00.756Z,1027.54
2023-01-29T06:37:00.715Z,1027.60
2023-01-29T06:38:00.696Z,1027.65
2023-01-29T06:39:00.697Z,1027.62
2023-01-29T06:40:00.695Z,1027.69
2023-01-29T06:41:00.715Z,1027.68
2023-01-29T06:42:00.673Z,1027.71
2023-01-29T06:43:00.649Z,1027.70
2023-01-29T06:44:00.618Z,1027.70
2023-01-29T06:45:00.635Z,1027.79
2023-01-29T06:46:00.738Z,1027.76
2023-01-29T06:47:00.608Z,1027.81
2023-01-29T06:48:01.680Z,1027.85
2023-01-29T06:49:00.561Z,1027.85
2023-01-29T06:50:00.567Z,1027.91
2023-01-29T06:51:00.524Z,1027.86
2023-01-29T06:52:00.547Z,1027.91
2023-01-29T06:53:00.528Z,1027.86
2023-01-29T06:54:00.526Z,1027.85
2023-01-29T06:55:00.524Z,1027.85
2023-01-29T06:56:00.472Z,1027.84
2023-01-29T06:57:00.519Z,1027.85
2023-01-29T06:58:00.449Z,1027.88
2023-01-29T06:59:00.435Z,1027.77
2023-01-29T07:00:00.454Z,1027.76
2023-01-29T07:01:00.573Z,1027.80
2023-01-29T07:02:00.504Z,1027.82
2023-01-29T07:03:00.415Z,1027.79
2023-01-29T07:04:00.389Z,1027.75
2023-01-29T07:05:00.374Z,1027.70
2023-01-29T07:06:00.397Z,1027.73
2023-01-29T07:07:00.352Z,1027.70
2023-01-29T07:08:00.380Z,1027.68
2023-01-29T07:09:00.313Z,1027.67
2023-01-29T07:10:00.324Z,1027.73
2023-01-29T07:11:00.316Z,1027.67
2023-01-29T07:12:00.303Z,1027.74
2023-01-29T07:13:00.267Z,1027.70
2023-01-29T07:14:00.267Z,1027.66
2023-01-29T07:15:00.264Z,1027.65
2023-01-29T07:16:00.315Z,1027.65
2023-01-29T07:17:00.204Z,1027.64
2023-01-29T07:18:00.248Z,1027.64
2023-01-29T07:19:00.173Z,1027.65
2023-01-29T07:20:00.183Z,1027.69
2023-01-29T07:21:00.148Z,1027.75
2023-01-29T07:22:00.170Z,1027.76
2023-01-29T07:23:00.167Z,1027.70
2023-01-29T07:24:00.215Z,1027.73
2023-01-29T07:25:00.139Z,1027.68
2023-01-29T07:26:00.120Z,1027.67
2023-01-29T07:27:00.094Z,1027.70
2023-01-29T07:28:01.114Z,1027.65
2023-01-29T07:29:00.097Z,1027.73
2023-01-29T07:30:00.062Z,1027.66
2023-01-29T07:31:54.364Z,1027.71
2023-01-29T07:32:54.265Z,1027.72
2023-01-29T07:33:54.188Z,1027.71
2023-01-29T07:34:56.880Z,1027.68
2023-01-29T07:35:54.189Z,1027.72
2023-01-29T07:36:54.153Z,1027.76
2023-01-29T07:37:54.136Z,1027.75
2023-01-29T07:38:54.142Z,1027.67
2023-01-29T07:39:54.106Z,1027.67
2023-01-29T07:40:54.127Z,1027.62
2023-01-29T07:41:54.085Z,1027.66
2023-01-29T07:42:54.111Z,1027.64
2023-01-29T07:43:54.059Z,1027.68
2023-01-29T07:44:54.048Z,1027.72
2023-01-29T07:45:54.105Z,1027.67
2023-01-29T07:46:54.051Z,1027.73
2023-01-29T07:47:54.062Z,1027.79
2023-01-29T07:48:54.038Z,1027.70
2023-01-29T07:49:53.975Z,1027.62
2023-01-29T07:50:53.978Z,1027.66
2023-01-29T07:51:53.972Z,1027.62
2023-01-29T07:52:53.959Z,1027.61
2023-01-29T07:53:53.974Z,1027.61
2023-01-29T07:54:53.932Z,1027.64
2023-01-29T07:55:53.898Z,1027.62
2023-01-29T07:56:53.918Z,1027.58
2023-01-29T07:57:53.885Z,1027.53
2023-01-29T07:58:53.902Z,1027.53
2023-01-29T07:59:53.888Z,1027.53
2023-01-29T08:00:53.955Z,1027.51
2023-01-29T08:01:53.895Z,1027.48
2023-01-29T08:02:53.860Z,1027.51
2023-01-29T08:03:53.830Z,1027.59
2023-01-29T08:04:53.812Z,1027.58
2023-01-29T08:05:53.804Z,1027.60
2023-01-29T08:06:53.797Z,1027.63
2023-01-29T08:08:05.630Z,1027.62
2023-01-29T08:08:54.776Z,1027.59
2023-01-29T08:09:53.740Z,1027.62
2023-01-29T08:10:53.773Z,1027.61
2023-01-29T08:11:53.762Z,1027.56
2023-01-29T08:12:53.744Z,1027.57
2023-01-29T08:13:53.710Z,1027.53
2023-01-29T08:14:53.710Z,1027.55
2023-01-29T08:15:53.700Z,1027.57
2023-01-29T08:16:53.725Z,1027.57
2023-01-29T08:18:54.653Z,1027.57
2023-01-29T08:19:53.622Z,1027.59
2023-01-29T08:20:53.618Z,1027.60
2023-01-29T08:21:53.568Z,1027.62
2023-01-29T08:22:53.610Z,1027.61
2023-01-29T08:23:53.544Z,1027.64
2023-01-29T08:24:54.393Z,1027.60
2023-01-29T08:25:54.610Z,1027.55
2023-01-29T08:26:53.526Z,1027.64
2023-01-29T08:27:53.531Z,1027.60
2023-01-29T08:28:53.534Z,1027.58
2023-01-29T08:29:53.477Z,1027.64
2023-01-29T08:30:53.570Z,1027.61
2023-01-29T08:31:53.483Z,1027.67
2023-01-29T08:32:53.462Z,1027.66
2023-01-29T08:33:53.433Z,1027.64
2023-01-29T08:34:53.422Z,1027.56
2023-01-29T08:35:53.392Z,1027.53
2023-01-29T08:36:53.402Z,1027.55
2023-01-29T08:37:53.393Z,1027.55
2023-01-29T08:38:53.375Z,1027.63
2023-01-29T08:39:53.342Z,1027.59
2023-01-29T08:40:53.359Z,1027.65
2023-01-29T08:41:53.323Z,1027.58
2023-01-29T08:42:53.355Z,1027.55
2023-01-29T08:43:53.300Z,1027.56
2023-01-29T08:44:53.345Z,1027.48
2023-01-29T08:45:53.324Z,1027.51
2023-01-29T08:46:53.270Z,1027.52
2023-01-29T08:47:53.251Z,1027.44
2023-01-29T08:48:53.288Z,1027.47
2023-01-29T08:49:53.250Z,1027.47
2023-01-29T08:50:53.233Z,1027.49
2023-01-29T08:51:53.213Z,1027.53
2023-01-29T08:52:53.216Z,1027.47
2023-01-29T08:53:53.215Z,1027.37
2023-01-29T08:54:53.175Z,1027.38
2023-01-29T08:55:53.161Z,1027.45
2023-01-29T08:56:53.191Z,1027.52
2023-01-29T08:57:53.167Z,1027.53
2023-01-29T08:58:53.134Z,1027.52
2023-01-29T08:59:53.157Z,1027.58
2023-01-29T09:00:53.129Z,1027.57
2023-01-29T09:01:53.121Z,1027.55
2023-01-29T09:02:53.075Z,1027.53
2023-01-29T09:03:53.061Z,1027.51
2023-01-29T09:04:53.050Z,1027.59
2023-01-29T09:05:53.080Z,1027.59
2023-01-29T09:06:53.064Z,1027.56
2023-01-29T09:07:54.240Z,1027.64
2023-01-29T09:08:52.982Z,1027.55
2023-01-29T09:09:53.010Z,1027.52
2023-01-29T09:10:52.999Z,1027.58
2023-01-29T09:11:52.979Z,1027.54
2023-01-29T09:12:52.966Z,1027.57
2023-01-29T09:13:52.934Z,1027.54
2023-01-29T09:14:52.935Z,1027.44
2023-01-29T09:15:52.941Z,1027.48
2023-01-29T09:16:52.971Z,1027.51
2023-01-29T09:17:52.900Z,1027.48
2023-01-29T09:18:52.879Z,1027.49
2023-01-29T09:19:52.866Z,1027.47
2023-01-29T09:20:52.871Z,1027.45
2023-01-29T09:21:52.854Z,1027.38
2023-01-29T09:22:52.810Z,1027.36
2023-01-29T09:23:52.837Z,1027.30
2023-01-29T09:24:52.778Z,1027.29
2023-01-29T09:25:52.800Z,1027.28
2023-01-29T09:26:52.772Z,1027.24
2023-01-29T09:27:52.878Z,1027.28
2023-01-29T09:28:52.749Z,1027.32
2023-01-29T09:29:52.752Z,1027.30
2023-01-29T09:30:52.864Z,1027.23
2023-01-29T09:31:52.939Z,1027.30
2023-01-29T09:32:54.155Z,1027.21
2023-01-29T09:33:53.091Z,1027.22
2023-01-29T09:34:52.659Z,1027.23
2023-01-29T09:35:52.683Z,1027.13
2023-01-29T09:36:52.625Z,1027.13
2023-01-29T09:37:52.771Z,1027.13
2023-01-29T09:38:52.625Z,1027.16
2023-01-29T09:39:52.632Z,1027.14
2023-01-29T09:40:52.610Z,1027.07
2023-01-29T09:41:52.583Z,1027.01
2023-01-29T09:42:52.554Z,1027.02
2023-01-29T09:43:52.587Z,1027.12
2023-01-29T09:44:52.570Z,1027.08
2023-01-29T09:45:52.562Z,1027.03
2023-01-29T09:46:52.522Z,1026.97
2023-01-29T09:47:52.530Z,1026.98
2023-01-29T09:48:52.494Z,1026.99
2023-01-29T09:49:52.475Z,1026.96
2023-01-29T09:50:52.455Z,1027.00
2023-01-29T09:51:52.479Z,1026.98
2023-01-29T09:52:52.457Z,1026.95
2023-01-29T09:53:52.457Z,1026.95
2023-01-29T09:54:52.436Z,1026.89
2023-01-29T09:55:52.427Z,1026.94
2023-01-29T09:56:52.370Z,1026.87
2023-01-29T09:57:52.406Z,1026.82
2023-01-29T09:58:52.375Z,1026.87
2023-01-29T09:59:52.349Z,1026.79
2023-01-29T10:00:52.318Z,1026.71
2023-01-29T10:01:52.458Z,1026.72
2023-01-29T10:02:52.330Z,1026.70
2023-01-29T10:03:52.324Z,1026.71
2023-01-29T10:04:52.333Z,1026.73
2023-01-29T10:05:52.294Z,1026.76
2023-01-29T10:06:52.289Z,1026.78
2023-01-29T10:07:52.267Z,1026.82
2023-01-29T10:08:52.257Z,1026.80
2023-01-29T10:09:52.241Z,1026.73
2023-01-29T10:10:52.235Z,1026.77
2023-01-29T10:11:52.211Z,1026.72
2023-01-29T10:12:52.175Z,1026.70
2023-01-29T10:13:52.224Z,1026.81
2023-01-29T10:14:52.171Z,1026.77
2023-01-29T10:15:52.180Z,1026.75
2023-01-29T10:16:52.172Z,1026.76
2023-01-29T10:17:52.184Z,1026.72
2023-01-29T10:18:52.129Z,1026.78
2023-01-29T10:19:52.141Z,1026.79
2023-01-29T10:20:52.115Z,1026.76
2023-01-29T10:21:52.080Z,1026.82
2023-01-29T10:22:52.076Z,1026.79
2023-01-29T10:23:52.082Z,1026.80
2023-01-29T10:24:52.048Z,1026.81
2023-01-29T10:25:52.050Z,1026.76
2023-01-29T10:26:52.052Z,1026.77
2023-01-29T10:27:52.030Z,1026.72
2023-01-29T10:28:51.997Z,1026.83
2023-01-29T10:29:52.003Z,1026.78
2023-01-29T10:30:52.094Z,1026.74
2023-01-29T10:31:52.062Z,1026.84
2023-01-29T10:32:51.956Z,1026.82
2023-01-29T10:34:02.207Z,1026.71
2023-01-29T10:34:52.927Z,1026.77
2023-01-29T10:35:51.926Z,1026.80
2023-01-29T10:36:51.880Z,1026.79
2023-01-29T10:37:51.890Z,1026.71
2023-01-29T10:38:51.859Z,1026.73
2023-01-29T10:39:51.880Z,1026.74
2023-01-29T10:40:51.866Z,1026.77
2023-01-29T10:41:53.884Z,1026.78
2023-01-29T10:42:51.849Z,1026.81
2023-01-29T10:43:51.798Z,1026.77
2023-01-29T10:44:51.807Z,1026.75
2023-01-29T10:45:51.822Z,1026.70
2023-01-29T10:46:51.812Z,1026.75
2023-01-29T10:47:51.815Z,1026.78
2023-01-29T10:48:51.725Z,1026.76
2023-01-29T10:49:51.783Z,1026.72
2023-01-29T10:50:51.776Z,1026.71
2023-01-29T10:51:51.712Z,1026.67
2023-01-29T10:52:51.710Z,1026.68
2023-01-29T10:53:51.789Z,1026.60
2023-01-29T10:54:51.685Z,1026.61
2023-01-29T10:55:51.667Z,1026.58
2023-01-29T10:56:51.643Z,1026.56
2023-01-29T10:57:51.644Z,1026.61
2023-01-29T10:58:51.603Z,1026.47
2023-01-29T10:59:51.641Z,1026.56
2023-01-29T11:00:51.629Z,1026.45
2023-01-29T11:01:51.668Z,1026.49
2023-01-29T11:02:51.649Z,1026.41
2023-01-29T11:03:51.598Z,1026.42
2023-01-29T11:04:51.546Z,1026.40
2023-01-29T11:05:51.553Z,1026.36
2023-01-29T11:06:51.506Z,1026.35
2023-01-29T11:07:51.521Z,1026.33
2023-01-29T11:08:51.493Z,1026.41
2023-01-29T11:09:51.480Z,1026.32
2023-01-29T11:10:51.685Z,1026.32
2023-01-29T11:11:51.443Z,1026.34
2023-01-29T11:12:51.421Z,1026.30
2023-01-29T11:13:51.455Z,1026.18
2023-01-29T11:14:51.434Z,1026.23
2023-01-29T11:15:51.423Z,1026.25
2023-01-29T11:16:51.438Z,1026.09
2023-01-29T11:17:51.470Z,1026.09
2023-01-29T11:18:51.388Z,1026.08
2023-01-29T11:19:51.375Z,1026.04
2023-01-29T11:20:51.352Z,1026.02
2023-01-29T11:21:51.456Z,1026.04
2023-01-29T11:22:51.322Z,1026.04
2023-01-29T11:23:51.316Z,1026.06
2023-01-29T11:24:51.288Z,1026.01
2023-01-29T11:25:51.265Z,1026.04
2023-01-29T11:26:51.290Z,1026.05
2023-01-29T11:27:51.273Z,1025.99
2023-01-29T11:28:51.231Z,1026.02
2023-01-29T11:29:51.247Z,1026.06
2023-01-29T11:30:51.312Z,1026.04
2023-01-29T11:31:51.267Z,1026.02
2023-01-29T11:32:51.190Z,1025.97
2023-01-29T11:33:51.201Z,1025.92
2023-01-29T11:34:51.177Z,1025.81
2023-01-29T11:35:51.154Z,1025.85
2023-01-29T11:36:51.180Z,1025.84
2023-01-29T11:37:51.143Z,1025.86
2023-01-29T11:38:51.135Z,1025.75
2023-01-29T11:39:51.126Z,1025.83
2023-01-29T11:40:51.181Z,1025.77
2023-01-29T11:41:51.101Z,1025.73
2023-01-29T11:42:51.059Z,1025.79
2023-01-29T11:43:51.066Z,1025.77
2023-01-29T11:44:51.094Z,1025.76
2023-01-29T11:45:51.047Z,1025.77
2023-01-29T11:46:51.011Z,1025.81
2023-01-29T11:47:51.017Z,1025.78
2023-01-29T11:48:50.969Z,1025.73
2023-01-29T11:49:50.959Z,1025.69
2023-01-29T11:50:50.996Z,1025.75
2023-01-29T11:51:51.018Z,1025.71
2023-01-29T11:52:50.944Z,1025.72
2023-01-29T11:53:50.964Z,1025.68
2023-01-29T11:54:50.903Z,1025.61
2023-01-29T11:55:51.205Z,1025.65
2023-01-29T11:56:50.914Z,1025.59
2023-01-29T11:57:50.856Z,1025.57
2023-01-29T11:58:50.841Z,1025.53
2023-01-29T11:59:50.863Z,1025.49
2023-01-29T12:00:50.846Z,1025.42
2023-01-29T12:01:50.818Z,1025.40
2023-01-29T12:02:50.790Z,1025.39
2023-01-29T12:03:50.970Z,1025.45
2023-01-29T12:04:50.823Z,1025.42
2023-01-29T12:05:50.836Z,1025.42
2023-01-29T12:06:50.788Z,1025.39